Peter R. Cresswell — VCBZ — position and weather

sailwx.info

Track history (hours):
 
Tides and Currents Weather Stations Pressure Air Temp Water Temp Dewpoint Dewpoint Depression Visibility Wind Speed Wind Dir Waves Ship Positions

Peter R. Cresswell

ex Algowest

Last reported at 2014-Dec-17 05:33 UTC. Time now 2014-Dec-19 01:30 UTC.
Position N 42°28' W 080°10'.

Length 219.2 m; beam 23.2 m; draft 8.7 m.

Type: Ship. MMSI: 316001697.

Date/timePositionNaut miles runAvg speedWind from/ knotsBaromVisibWave heightAir tempDewpointWater temp
2014-Dec-17 05:33N 42°28' W 080°10'1110.9
2014-Dec-17 04:33N 42°33' W 079°57'1110.9
2014-Dec-17 03:33N 42°38' W 079°44'145 5.2
2014-Dec-16 00:00N 44°06' W 077°06'0 0.0 060 / 11018.2 1.8 0.3
2014-Dec-15 23:00N 44°06' W 077°06'0 0.0 060 / 11018.4 1.3-0.1
2014-Dec-15 22:00N 44°06' W 077°06'0 0.0 180 / 11018.5 2.5 0.1
2014-Dec-15 21:00N 44°06' W 077°06'0 0.0 260 / 11018.3 2.1-0.5
2014-Dec-15 20:00N 44°06' W 077°06'0 0.0 300 / 11018.1 1.9-0.5
2014-Dec-15 19:00N 44°06' W 077°06'0 0.0 250 / 31018.1 1.8-0.2
2014-Dec-15 18:00N 44°06' W 077°06'0 0.0 230 / 41018.2 1.8-0.4
2014-Dec-15 17:00N 44°06' W 077°06'0 0.0 080 / 11018.7 2.1-0.3
2014-Dec-15 16:00N 44°06' W 077°06'0 0.0 140 / 11019.3 2.1-0.4
2014-Dec-15 15:00N 44°06' W 077°06'0 0.0 220 / 21019.7 1.7-0.7
2014-Dec-15 14:00N 44°06' W 077°06'0 0.0 240 / 21019.5 1.7-0.8
2014-Dec-15 13:00N 44°06' W 077°06'0 0.0 270 / 11019.2 1.9-0.3
2014-Dec-15 12:00N 44°06' W 077°06'0 0.0 240 / 31019.1 1.3-0.6
2014-Dec-15 11:00N 44°06' W 077°06'0 0.0 250 / 21018.8 1.0 0.1
2014-Dec-15 10:00N 44°06' W 077°06'0 0.0 250 / 11018.4 1.8 0.3
2014-Dec-15 09:00N 44°06' W 077°06'0 0.0 260 / 31018.5 1.3 0.2
2014-Dec-15 08:00N 44°06' W 077°06'0 0.0 260 / 31018.4 1.0 0.2
2014-Dec-15 07:00N 44°06' W 077°06'0 0.0 260 / 31018.0 1.1 0.2
2014-Dec-15 06:00N 44°06' W 077°06'0 0.0 280 / 31017.8 1.1 0.3
2014-Dec-15 05:00N 44°06' W 077°06'0 0.0 230 / 21017.5 1.9 0.5
2014-Dec-15 04:00N 44°06' W 077°06'0 0.0 230 / 31017.7 1.8 0.5 2.4
2014-Dec-15 03:00N 44°06' W 077°06'0 0.0 270 / 31017.5 1.3 0.4 1.9
2014-Dec-15 02:00N 44°06' W 077°06'0 0.0 280 / 41017.2 1.9 0.5 1.3
2014-Dec-15 01:00N 44°06' W 077°06'0 0.0 300 / 71017.0 2.0 0.9
2014-Dec-15 00:00N 44°06' W 077°06'0 0.0 280 / 61016.6 2.1 1.1
2014-Dec-14 23:00N 44°06' W 077°06'0 0.0 290 / 51016.1 2.3 1.2
2014-Dec-14 22:00N 44°06' W 077°06'0 0.0 280 / 61015.4 2.5 1.3
2014-Dec-14 21:00N 44°06' W 077°06'0 0.0 280 / 71014.8 2.6 1.2
2014-Dec-14 20:00N 44°06' W 077°06'0 0.0 290 / 51014.5 2.6 0.8
2014-Dec-14 19:00N 44°06' W 077°06'0 0.0 290 / 41014.2 2.6 0.6
2014-Dec-14 18:00N 44°06' W 077°06'0 0.0 320 / 61013.9 2.1 1.4
2014-Dec-14 17:00N 44°06' W 077°06'0 0.0 310 / 51014.0 2.2 1.6
2014-Dec-14 16:00N 44°06' W 077°06'0 0.0 290 / 41014.6 1.9 1.6
2014-Dec-14 15:00N 44°06' W 077°06'0 0.0 280 / 61014.6 2.0 1.5
2014-Dec-14 14:00N 44°06' W 077°06'0 0.0 270 / 91014.4 1.7 1.2
2014-Dec-14 13:00N 44°06' W 077°06'0 0.0 270 / 91013.9 1.8 1.1
2014-Dec-14 12:00N 44°06' W 077°06'0 0.0 270 / 81013.1 1.8 1.1 2.1
2014-Dec-14 11:00N 44°06' W 077°06'0 0.0 270 / 91012.8 1.7 1.1 1.6
2014-Dec-14 10:00N 44°06' W 077°06'9 8.6 250 / 111012.0 1.6 0.7 1.4
2014-Dec-14 09:00N 44°06' W 076°54'7 7.4 260 / 121011.7 2.0 0.8 4.7
2014-Dec-14 08:00N 44°00' W 076°48'7 7.4 250 / 141011.9 2.3 0.7 5.9
2014-Dec-14 07:00N 43°54' W 076°54'1110.5 300 / 161012.0 2.2 0.4 6.7
2014-Dec-14 06:00N 43°48' W 077°06'1414.3 290 / 201012.5 3.0 1.3 6.7
2014-Dec-14 05:00N 43°42' W 077°24'1313.0 270 / 201012.9 3.2 0.8 6.4
2014-Dec-14 04:00N 43°42' W 077°42'9 8.7 280 / 231013.4 3.0 1.0 6.4
2014-Dec-14 03:00N 43°42' W 077°54'78 2.2 270 / 231013.9 3.0 1.1 5.4
2014-Dec-12 15:00N 42°54' W 079°18'22 5.8 290 / 131019.9 -0.7-5.4 4.8
2014-Dec-12 11:10N 42°37' W 079°38'711.2
2014-Dec-12 10:34N 42°34' W 079°46'1211.0
2014-Dec-12 09:26N 42°26' W 079°59'268 7.0
2014-Dec-10 19:15N 45°56' W 083°52'710.2
2014-Dec-10 18:32N 46°02' W 083°56'  
Track history (hours):
 
Tides and Currents Weather Stations Pressure Air Temp Water Temp Dewpoint Dewpoint Depression Visibility Wind Speed Wind Dir Waves Ship Positions

Peter R. Cresswell

ex Algowest

Last reported at 2014-Dec-17 05:33 UTC. Time now 2014-Dec-19 01:30 UTC.
Position N 42°28' W 080°10'.

Length 219.2 m; beam 23.2 m; draft 8.7 m.

Type: Ship. MMSI: 316001697.

Date/timePositionNaut miles runAvg speedWind from/ knotsBaromVisibWave heightAir tempDewpointWater temp
2014-Dec-17 05:33N 42°28' W 080°10'1110.9
2014-Dec-17 04:33N 42°33' W 079°57'1110.9
2014-Dec-17 03:33N 42°38' W 079°44'145 5.2
2014-Dec-16 00:00N 44°06' W 077°06'0 0.0 060 / 11018.2 1.8 0.3
2014-Dec-15 23:00N 44°06' W 077°06'0 0.0 060 / 11018.4 1.3-0.1
2014-Dec-15 22:00N 44°06' W 077°06'0 0.0 180 / 11018.5 2.5 0.1
2014-Dec-15 21:00N 44°06' W 077°06'0 0.0 260 / 11018.3 2.1-0.5
2014-Dec-15 20:00N 44°06' W 077°06'0 0.0 300 / 11018.1 1.9-0.5
2014-Dec-15 19:00N 44°06' W 077°06'0 0.0 250 / 31018.1 1.8-0.2
2014-Dec-15 18:00N 44°06' W 077°06'0 0.0 230 / 41018.2 1.8-0.4
2014-Dec-15 17:00N 44°06' W 077°06'0 0.0 080 / 11018.7 2.1-0.3
2014-Dec-15 16:00N 44°06' W 077°06'0 0.0 140 / 11019.3 2.1-0.4
2014-Dec-15 15:00N 44°06' W 077°06'0 0.0 220 / 21019.7 1.7-0.7
2014-Dec-15 14:00N 44°06' W 077°06'0 0.0 240 / 21019.5 1.7-0.8
2014-Dec-15 13:00N 44°06' W 077°06'0 0.0 270 / 11019.2 1.9-0.3
2014-Dec-15 12:00N 44°06' W 077°06'0 0.0 240 / 31019.1 1.3-0.6
2014-Dec-15 11:00N 44°06' W 077°06'0 0.0 250 / 21018.8 1.0 0.1
2014-Dec-15 10:00N 44°06' W 077°06'0 0.0 250 / 11018.4 1.8 0.3
2014-Dec-15 09:00N 44°06' W 077°06'0 0.0 260 / 31018.5 1.3 0.2
2014-Dec-15 08:00N 44°06' W 077°06'0 0.0 260 / 31018.4 1.0 0.2
2014-Dec-15 07:00N 44°06' W 077°06'0 0.0 260 / 31018.0 1.1 0.2
2014-Dec-15 06:00N 44°06' W 077°06'0 0.0 280 / 31017.8 1.1 0.3
2014-Dec-15 05:00N 44°06' W 077°06'0 0.0 230 / 21017.5 1.9 0.5
2014-Dec-15 04:00N 44°06' W 077°06'0 0.0 230 / 31017.7 1.8 0.5 2.4
2014-Dec-15 03:00N 44°06' W 077°06'0 0.0 270 / 31017.5 1.3 0.4 1.9
2014-Dec-15 02:00N 44°06' W 077°06'0 0.0 280 / 41017.2 1.9 0.5 1.3
2014-Dec-15 01:00N 44°06' W 077°06'0 0.0 300 / 71017.0 2.0 0.9
2014-Dec-15 00:00N 44°06' W 077°06'0 0.0 280 / 61016.6 2.1 1.1
2014-Dec-14 23:00N 44°06' W 077°06'0 0.0 290 / 51016.1 2.3 1.2
2014-Dec-14 22:00N 44°06' W 077°06'0 0.0 280 / 61015.4 2.5 1.3
2014-Dec-14 21:00N 44°06' W 077°06'0 0.0 280 / 71014.8 2.6 1.2
2014-Dec-14 20:00N 44°06' W 077°06'0 0.0 290 / 51014.5 2.6 0.8
2014-Dec-14 19:00N 44°06' W 077°06'0 0.0 290 / 41014.2 2.6 0.6
2014-Dec-14 18:00N 44°06' W 077°06'0 0.0 320 / 61013.9 2.1 1.4
2014-Dec-14 17:00N 44°06' W 077°06'0 0.0 310 / 51014.0 2.2 1.6
2014-Dec-14 16:00N 44°06' W 077°06'0 0.0 290 / 41014.6 1.9 1.6
2014-Dec-14 15:00N 44°06' W 077°06'0 0.0 280 / 61014.6 2.0 1.5
2014-Dec-14 14:00N 44°06' W 077°06'0 0.0 270 / 91014.4 1.7 1.2
2014-Dec-14 13:00N 44°06' W 077°06'0 0.0 270 / 91013.9 1.8 1.1
2014-Dec-14 12:00N 44°06' W 077°06'0 0.0 270 / 81013.1 1.8 1.1 2.1
2014-Dec-14 11:00N 44°06' W 077°06'0 0.0 270 / 91012.8 1.7 1.1 1.6
2014-Dec-14 10:00N 44°06' W 077°06'9 8.6 250 / 111012.0 1.6 0.7 1.4
2014-Dec-14 09:00N 44°06' W 076°54'7 7.4 260 / 121011.7 2.0 0.8 4.7
2014-Dec-14 08:00N 44°00' W 076°48'7 7.4 250 / 141011.9 2.3 0.7 5.9
2014-Dec-14 07:00N 43°54' W 076°54'1110.5 300 / 161012.0 2.2 0.4 6.7
2014-Dec-14 06:00N 43°48' W 077°06'1414.3 290 / 201012.5 3.0 1.3 6.7
2014-Dec-14 05:00N 43°42' W 077°24'1313.0 270 / 201012.9 3.2 0.8 6.4
2014-Dec-14 04:00N 43°42' W 077°42'9 8.7 280 / 231013.4 3.0 1.0 6.4
2014-Dec-14 03:00N 43°42' W 077°54'78 2.2 270 / 231013.9 3.0 1.1 5.4
2014-Dec-12 15:00N 42°54' W 079°18'22 5.8 290 / 131019.9 -0.7-5.4 4.8
2014-Dec-12 11:10N 42°37' W 079°38'711.2
2014-Dec-12 10:34N 42°34' W 079°46'1211.0
2014-Dec-12 09:26N 42°26' W 079°59'268 7.0
2014-Dec-10 19:15N 45°56' W 083°52'710.2
2014-Dec-10 18:32N 46°02' W 083°56'  

Dump ship's entire track history